Friday Harbor, WA (98250)

12:06 PM PDT on September 01, 2015 (GMT -0700)
Ericson | | Change Station
CLOSE
Current Station
Personal Weather Station
Location: Friday Harbor, WA
Elevation: 325 ft
Nearby Weather Stations

Elev 325 ft 48.54 °N, 123.07 °W | Updated 2 seconds ago

Light Rain
Light Rain
59.5 °F
Feels Like 59.5 °F
N
0.0
Wind Variable Wind from South
Gusts 0.0 mph

Today
High -- | Low -- °F
--% Chance of Precip.
Yesterday
High -- | Low -- °F
Precip. -- in
6:29 AM 7:54 PM
Waning Gibbous, 87% visible
Pressure 29.84 in
Visibility 7.0 miles
Clouds Overcast 4400 ft
Dew Point 59 °F
Humidity 99%
Rainfall 0.14 in
Snow Depth Not available.
UV 2.0 out of 12
Pollen .50 out of 12
Air Quality Not available.
Flu Activity Not available.
METAR KFHR 011853Z AUTO 00000KT 7SM -RA OVC044 16/13 A2984 RMK AO2 RAB36 SLP104 P0000 T01560133
Pressure 29.84 in
Visibility 7.0 miles
Clouds Overcast 4400 ft
Dew Point 59 °F
Humidity 99%
Rainfall 0.14 in
Snow Depth Not available.
UV 2.0 out of 12
Pollen .50 out of 12
Air Quality Not available.
Flu Activity Not available.
METAR KFHR 011853Z AUTO 00000KT 7SM -RA OVC044 16/13 A2984 RMK AO2 RAB36 SLP104 P0000 T01560133

10-Day Weather Forecast

×

Almanac

Astronomy

Sep. 01, 2015 Rise Set
Actual Time
Civil Twilight
Nautical Twilight
Astronomical Twilight
Moon
Length of Visible Light
Length of Day
Tomorrow will be .
, % of the Moon is Illuminated

Today's Extremes

State Highs State Lows

Community

WunderPhotos

Upload Photos

1,851,596 photos uploaded!

WunderBlogs® & News

Nearby

Air Quality

  Air Quality AQ Index Pollutant
Not available.

Snow Depth

Station Depth Elevation

Earthquake Activity

City Distance Mag. Time & Date
Minimum magnitude displayed is 2.5.

Coastal Water Temperatures

Place Temperature

Stations

Nearby Weather Stations

Station Location Temp. Windchill Dew Point Humidity Wind Precip. Elev Updated Type